»·PEaware :: N902SQ KAPA-KTEX

N902SQ :: KAPA-KTEX

FLIGHT INFORMATION

Flight Status: Arrived
Operator: Privately registered:
United States
More flights under this callsign
Pilot: Gabor H. (24209)
Aircraft: SOCATA TBM-900
(TBM9)
More flights by this aircraft type
Origin: KAPA Centennial
United States
Destination: KTEX Telluride Regl
United States
More flights between these airports :: More routes between these airports
Route: ROCKI5 MTJ ETL
File this flight plan on PilotEdge
Remarks:
Altitude:
(Current/Filed)
22,000ft
Speed:
(Current/Filed)
290kts
Departed: 04-Jun-23 10:50 AM
Arrived: 04-Jun-23 11:41 AM
Distance/Time
Traveled:
173nm/0:51
Distance/Time
To Go:
Arrived

Flight Plot

Page will automatically refresh every two minutes.

Flight plan parsing failed; only flown route is shown


Map Options




Map Legend


Flown Route
Filed Route
Departure Airport
Arrival Airport
Navaid (VOR, NDB)
Fix

Horizontal Profiles

Position Reports

Time Latitude Longitude Heading Altitude Ground
Speed
04-Jun-23 10:33 39.567354 -104.847612 360 5887ft 0kts
04-Jun-23 10:34 39.567354 -104.847612 360 5887ft 0kts
04-Jun-23 10:35 39.567354 -104.847612 360 5887ft 0kts
04-Jun-23 10:36 39.567354 -104.847612 360 5887ft 0kts
04-Jun-23 10:37 39.567354 -104.847612 0 5887ft 0kts
04-Jun-23 10:38 39.567354 -104.847612 0 5887ft 0kts
04-Jun-23 10:39 39.567354 -104.847612 360 5887ft 0kts
04-Jun-23 10:40 39.567354 -104.847612 360 5887ft 0kts
04-Jun-23 10:41 39.567354 -104.847612 360 5887ft 0kts
04-Jun-23 10:42 39.567354 -104.847612 360 5887ft 0kts
04-Jun-23 10:43 39.567354 -104.847612 360 5887ft 0kts
04-Jun-23 10:44 39.567354 -104.847612 360 5887ft 0kts
04-Jun-23 10:45 39.567426 -104.847636 323 5887ft 3kts
04-Jun-23 10:46 39.568227 -104.849342 175 5887ft 9kts
04-Jun-23 10:47 39.564357 -104.849168 180 5887ft 20kts
04-Jun-23 10:48 39.558589 -104.848875 179 5887ft 17kts
04-Jun-23 10:49 39.556873 -104.848964 240 5887ft 0kts
04-Jun-23 10:50 39.559546 -104.850339 357 5887ft 65kts
04-Jun-23 10:51 39.594053 -104.851872 357 6942ft 151kts
04-Jun-23 10:52 39.642081 -104.854175 357 8025ft 199kts
04-Jun-23 10:53 39.675756 -104.900594 287 9314ft 192kts
04-Jun-23 10:54 39.691872 -104.965765 288 11268ft 190kts
04-Jun-23 10:55 39.709495 -105.035833 287 12027ft 233kts
04-Jun-23 10:56 39.731207 -105.121345 288 12005ft 259kts
04-Jun-23 10:57 39.754110 -105.211557 288 12000ft 264kts
04-Jun-23 10:57 39.764308 -105.286255 240 12507ft 246kts
04-Jun-23 10:58 39.719942 -105.346300 228 13978ft 224kts
04-Jun-23 11:00 39.675012 -105.419075 228 15707ft 218kts
04-Jun-23 11:01 39.637961 -105.479869 228 17190ft 215kts
04-Jun-23 11:02 39.601075 -105.540326 227 18678ft 214kts
04-Jun-23 11:02 39.570110 -105.590968 226 19926ft 218kts
04-Jun-23 11:03 39.541167 -105.661831 245 21435ft 233kts
04-Jun-23 11:04 39.518685 -105.743528 245 22297ft 262kts
04-Jun-23 11:06 39.487626 -105.855369 245 22272ft 296kts
04-Jun-23 11:06 39.464060 -105.939912 246 22292ft 302kts
04-Jun-23 11:07 39.435370 -106.042472 246 22328ft 307kts
04-Jun-23 11:08 39.406043 -106.146759 246 22328ft 307kts
04-Jun-23 11:09 39.377129 -106.249263 246 22353ft 301kts
04-Jun-23 11:10 39.358970 -106.354587 264 22325ft 306kts
04-Jun-23 11:11 39.359765 -106.463842 268 22343ft 301kts
04-Jun-23 11:12 39.360731 -106.571338 264 22319ft 298kts
04-Jun-23 11:13 39.311621 -106.650215 221 22294ft 286kts
04-Jun-23 11:14 39.255580 -106.722754 222 22272ft 288kts
04-Jun-23 11:15 39.199605 -106.795351 221 22316ft 287kts
04-Jun-23 11:16 39.143124 -106.868265 221 22329ft 288kts
04-Jun-23 11:17 39.086003 -106.941868 223 22366ft 292kts
04-Jun-23 11:18 39.028433 -107.015830 223 22328ft 294kts
04-Jun-23 11:19 38.970919 -107.089574 223 22287ft 292kts
04-Jun-23 11:20 38.913512 -107.163008 223 22216ft 291kts
04-Jun-23 11:21 38.856240 -107.236074 224 22164ft 290kts
04-Jun-23 11:22 38.799095 -107.308810 224 22164ft 288kts
04-Jun-23 11:23 38.742130 -107.381140 224 22164ft 288kts
04-Jun-23 11:24 38.685436 -107.452960 224 22164ft 287kts
04-Jun-23 11:25 38.628456 -107.524966 224 22164ft 287kts
04-Jun-23 11:26 38.571533 -107.596733 224 22164ft 287kts
04-Jun-23 11:27 38.514758 -107.668141 224 22165ft 287kts
04-Jun-23 11:28 38.457967 -107.739421 224 22164ft 287kts
04-Jun-23 11:29 38.398816 -107.813467 224 21264ft 307kts
04-Jun-23 11:30 38.336660 -107.891089 224 19782ft 316kts
04-Jun-23 11:31 38.274365 -107.968700 224 18259ft 314kts
04-Jun-23 11:32 38.212048 -108.046098 224 16656ft 312kts
04-Jun-23 11:33 38.145780 -108.114422 219 15042ft 301kts
04-Jun-23 11:34 38.080763 -108.171764 186 13375ft 279kts
04-Jun-23 11:35 38.015237 -108.144531 141 12817ft 238kts
04-Jun-23 11:36 37.985451 -108.073836 104 11582ft 219kts
04-Jun-23 11:37 37.972088 -108.004457 102 10208ft 140kts
04-Jun-23 11:38 37.963439 -107.955822 102 9664ft 138kts
04-Jun-23 11:39 37.955356 -107.916089 103 9049ft 101kts
04-Jun-23 11:40 37.952726 -107.901360 23 9073ft 13kts
04-Jun-23 11:41 37.953540 -107.901670 288 9073ft 7kts
04-Jun-23 11:42 37.954160 -107.902810 103 9073ft 0kts
04-Jun-23 11:43 37.954160 -107.902810 103 9073ft 0kts
04-Jun-23 11:44 37.954160 -107.902810 103 9073ft 0kts
04-Jun-23 11:45 37.954160 -107.902810 103 9073ft 0kts
04-Jun-23 11:46 37.954148 -107.902623 62 9073ft 1kts
04-Jun-23 11:47 37.954700 -107.902366 14 9073ft 2kts
04-Jun-23 11:48 37.954764 -107.902142 281 9073ft 1kts
04-Jun-23 11:49 37.954817 -107.901871 230 9073ft 0kts
04-Jun-23 11:50 37.954817 -107.901871 230 9073ft 0kts

Navigation Log

Ident Type
Flight plan parsing failed, navigation log unavailable